sensor_id;sensor_type;location;lat;lon;timestamp;P1;durP1;ratioP1;P2;durP2;ratioP2
37847;SDS011;23688;33.130;-117.188;2023-02-15T00:01:11;52.25;;;8.65;;
37847;SDS011;23688;33.130;-117.188;2023-02-15T00:03:38;44.58;;;8.30;;
37847;SDS011;23688;33.130;-117.188;2023-02-15T00:06:04;43.97;;;7.35;;
37847;SDS011;23688;33.130;-117.188;2023-02-15T00:08:31;41.63;;;8.75;;
37847;SDS011;23688;33.130;-117.188;2023-02-15T00:11:04;51.50;;;7.93;;
37847;SDS011;23688;33.130;-117.188;2023-02-15T00:13:31;40.40;;;7.63;;
37847;SDS011;23688;33.130;-117.188;2023-02-15T00:16:11;42.70;;;7.95;;
37847;SDS011;23688;33.130;-117.188;2023-02-15T00:18:39;50.85;;;6.95;;
37847;SDS011;23688;33.130;-117.188;2023-02-15T00:21:06;48.67;;;8.57;;
37847;SDS011;23688;33.130;-117.188;2023-02-15T00:23:34;60.53;;;8.70;;
37847;SDS011;23688;33.130;-117.188;2023-02-15T00:26:04;42.83;;;8.38;;
37847;SDS011;23688;33.130;-117.188;2023-02-15T00:28:35;45.42;;;7.13;;
37847;SDS011;23688;33.130;-117.188;2023-02-15T00:31:09;42.70;;;7.25;;
37847;SDS011;23688;33.130;-117.188;2023-02-15T00:33:37;50.17;;;9.13;;
37847;SDS011;23688;33.130;-117.188;2023-02-15T00:36:05;48.22;;;8.13;;
37847;SDS011;23688;33.130;-117.188;2023-02-15T00:38:33;46.50;;;7.82;;
37847;SDS011;23688;33.130;-117.188;2023-02-15T00:41:00;45.13;;;6.72;;
37847;SDS011;23688;33.130;-117.188;2023-02-15T00:43:28;47.35;;;8.32;;
37847;SDS011;23688;33.130;-117.188;2023-02-15T00:45:55;45.78;;;6.03;;
37847;SDS011;23688;33.130;-117.188;2023-02-15T00:48:22;63.80;;;8.60;;
37847;SDS011;23688;33.130;-117.188;2023-02-15T00:50:50;45.88;;;7.80;;
37847;SDS011;23688;33.130;-117.188;2023-02-15T00:53:21;51.10;;;8.25;;
37847;SDS011;23688;33.130;-117.188;2023-02-15T00:55:49;49.03;;;8.65;;
37847;SDS011;23688;33.130;-117.188;2023-02-15T00:58:15;38.50;;;7.70;;
37847;SDS011;23688;33.130;-117.188;2023-02-15T01:00:43;51.63;;;7.70;;
37847;SDS011;23688;33.130;-117.188;2023-02-15T01:03:11;58.10;;;9.25;;
37847;SDS011;23688;33.130;-117.188;2023-02-15T01:05:38;46.97;;;9.20;;
37847;SDS011;23688;33.130;-117.188;2023-02-15T01:08:05;50.25;;;8.00;;
37847;SDS011;23688;33.130;-117.188;2023-02-15T01:10:33;51.67;;;8.40;;
37847;SDS011;23688;33.130;-117.188;2023-02-15T01:15:26;40.75;;;7.30;;
37847;SDS011;23688;33.130;-117.188;2023-02-15T01:17:53;44.78;;;6.88;;
37847;SDS011;23688;33.130;-117.188;2023-02-15T01:20:20;45.53;;;6.20;;
37847;SDS011;23688;33.130;-117.188;2023-02-15T01:22:51;45.63;;;7.25;;
37847;SDS011;23688;33.130;-117.188;2023-02-15T01:25:19;49.42;;;8.48;;
37847;SDS011;23688;33.130;-117.188;2023-02-15T01:27:46;35.90;;;5.55;;
37847;SDS011;23688;33.130;-117.188;2023-02-15T01:30:13;59.47;;;10.68;;
37847;SDS011;23688;33.130;-117.188;2023-02-15T01:32:41;46.40;;;8.93;;
37847;SDS011;23688;33.130;-117.188;2023-02-15T01:35:08;45.17;;;7.18;;
37847;SDS011;23688;33.130;-117.188;2023-02-15T01:37:35;61.50;;;9.05;;
37847;SDS011;23688;33.130;-117.188;2023-02-15T01:40:05;51.83;;;7.20;;
37847;SDS011;23688;33.130;-117.188;2023-02-15T01:42:33;50.33;;;6.95;;
37847;SDS011;23688;33.130;-117.188;2023-02-15T01:45:00;49.45;;;8.27;;
37847;SDS011;23688;33.130;-117.188;2023-02-15T01:50:54;55.13;;;7.10;;
37847;SDS011;23688;33.130;-117.188;2023-02-15T01:53:26;52.38;;;8.60;;
37847;SDS011;23688;33.130;-117.188;2023-02-15T01:55:59;50.50;;;9.85;;
37847;SDS011;23688;33.130;-117.188;2023-02-15T01:58:30;51.35;;;8.70;;
37847;SDS011;23688;33.130;-117.188;2023-02-15T02:01:00;51.85;;;9.45;;
37847;SDS011;23688;33.130;-117.188;2023-02-15T02:06:09;48.75;;;7.55;;
37847;SDS011;23688;33.130;-117.188;2023-02-15T02:08:36;42.55;;;6.93;;
37847;SDS011;23688;33.130;-117.188;2023-02-15T02:11:08;57.88;;;9.05;;
37847;SDS011;23688;33.130;-117.188;2023-02-15T02:13:41;54.35;;;10.23;;
37847;SDS011;23688;33.130;-117.188;2023-02-15T02:18:49;49.28;;;8.23;;
37847;SDS011;23688;33.130;-117.188;2023-02-15T02:27:18;39.58;;;7.80;;
37847;SDS011;23688;33.130;-117.188;2023-02-15T02:45:50;57.30;;;9.35;;
37847;SDS011;23688;33.130;-117.188;2023-02-15T02:48:24;58.95;;;8.77;;
37847;SDS011;23688;33.130;-117.188;2023-02-15T02:50:53;44.50;;;8.98;;
37847;SDS011;23688;33.130;-117.188;2023-02-15T02:53:19;50.25;;;7.47;;
37847;SDS011;23688;33.130;-117.188;2023-02-15T02:55:47;54.33;;;8.77;;
37847;SDS011;23688;33.130;-117.188;2023-02-15T03:05:53;45.75;;;8.30;;
37847;SDS011;23688;33.130;-117.188;2023-02-15T03:08:23;52.38;;;7.22;;
37847;SDS011;23688;33.130;-117.188;2023-02-15T03:10:53;67.03;;;9.65;;
37847;SDS011;23688;33.130;-117.188;2023-02-15T03:13:23;56.50;;;8.70;;
37847;SDS011;23688;33.130;-117.188;2023-02-15T03:15:50;52.85;;;9.20;;
37847;SDS011;23688;33.130;-117.188;2023-02-15T03:18:46;52.15;;;9.13;;
37847;SDS011;23688;33.130;-117.188;2023-02-15T03:21:21;60.38;;;8.15;;
37847;SDS011;23688;33.130;-117.188;2023-02-15T03:24:01;47.15;;;7.97;;
37847;SDS011;23688;33.130;-117.188;2023-02-15T03:26:40;49.95;;;8.52;;
37847;SDS011;23688;33.130;-117.188;2023-02-15T03:29:11;42.80;;;7.00;;
37847;SDS011;23688;33.130;-117.188;2023-02-15T03:31:41;49.35;;;7.35;;
37847;SDS011;23688;33.130;-117.188;2023-02-15T03:34:11;52.92;;;8.65;;
37847;SDS011;23688;33.130;-117.188;2023-02-15T03:39:45;42.58;;;6.68;;
37847;SDS011;23688;33.130;-117.188;2023-02-15T03:42:26;39.40;;;7.38;;
37847;SDS011;23688;33.130;-117.188;2023-02-15T03:44:55;41.65;;;7.53;;
37847;SDS011;23688;33.130;-117.188;2023-02-15T03:47:34;45.10;;;7.38;;
37847;SDS011;23688;33.130;-117.188;2023-02-15T03:53:02;49.22;;;7.88;;
37847;SDS011;23688;33.130;-117.188;2023-02-15T03:55:33;45.70;;;6.82;;
37847;SDS011;23688;33.130;-117.188;2023-02-15T03:58:00;48.00;;;11.25;;
37847;SDS011;23688;33.130;-117.188;2023-02-15T04:00:48;45.70;;;8.07;;
37847;SDS011;23688;33.130;-117.188;2023-02-15T04:04:00;51.08;;;7.57;;
37847;SDS011;23688;33.130;-117.188;2023-02-15T04:06:28;52.50;;;7.28;;
37847;SDS011;23688;33.130;-117.188;2023-02-15T04:08:54;48.25;;;8.32;;
37847;SDS011;23688;33.130;-117.188;2023-02-15T04:11:39;43.10;;;8.05;;
37847;SDS011;23688;33.130;-117.188;2023-02-15T04:14:06;39.78;;;7.00;;
37847;SDS011;23688;33.130;-117.188;2023-02-15T04:16:50;41.95;;;6.90;;
37847;SDS011;23688;33.130;-117.188;2023-02-15T04:19:17;39.40;;;6.93;;
37847;SDS011;23688;33.130;-117.188;2023-02-15T04:22:02;44.05;;;8.75;;
37847;SDS011;23688;33.130;-117.188;2023-02-15T04:24:46;33.80;;;6.43;;
37847;SDS011;23688;33.130;-117.188;2023-02-15T04:27:30;37.13;;;6.45;;
37847;SDS011;23688;33.130;-117.188;2023-02-15T04:29:57;42.72;;;8.32;;
37847;SDS011;23688;33.130;-117.188;2023-02-15T04:32:23;42.65;;;7.35;;
37847;SDS011;23688;33.130;-117.188;2023-02-15T04:34:50;46.60;;;6.95;;
37847;SDS011;23688;33.130;-117.188;2023-02-15T04:37:16;30.38;;;5.97;;
37847;SDS011;23688;33.130;-117.188;2023-02-15T04:39:42;30.05;;;7.30;;
37847;SDS011;23688;33.130;-117.188;2023-02-15T04:42:08;51.70;;;7.90;;
37847;SDS011;23688;33.130;-117.188;2023-02-15T04:44:35;30.83;;;6.63;;
37847;SDS011;23688;33.130;-117.188;2023-02-15T04:47:01;29.92;;;6.90;;
37847;SDS011;23688;33.130;-117.188;2023-02-15T04:49:27;49.03;;;7.75;;
37847;SDS011;23688;33.130;-117.188;2023-02-15T04:51:54;45.08;;;7.40;;
37847;SDS011;23688;33.130;-117.188;2023-02-15T04:54:20;48.20;;;7.45;;
37847;SDS011;23688;33.130;-117.188;2023-02-15T04:56:46;48.60;;;7.60;;
37847;SDS011;23688;33.130;-117.188;2023-02-15T04:59:13;54.50;;;7.75;;
37847;SDS011;23688;33.130;-117.188;2023-02-15T05:01:39;52.08;;;8.18;;
37847;SDS011;23688;33.130;-117.188;2023-02-15T05:04:05;44.70;;;7.35;;
37847;SDS011;23688;33.130;-117.188;2023-02-15T05:06:32;53.28;;;7.93;;
37847;SDS011;23688;33.130;-117.188;2023-02-15T05:08:58;41.58;;;8.48;;
37847;SDS011;23688;33.130;-117.188;2023-02-15T05:11:25;38.55;;;8.50;;
37847;SDS011;23688;33.130;-117.188;2023-02-15T05:13:52;59.00;;;9.98;;
37847;SDS011;23688;33.130;-117.188;2023-02-15T05:16:18;38.15;;;5.93;;
37847;SDS011;23688;33.130;-117.188;2023-02-15T05:18:44;40.42;;;6.47;;
37847;SDS011;23688;33.130;-117.188;2023-02-15T05:21:10;49.83;;;6.90;;
37847;SDS011;23688;33.130;-117.188;2023-02-15T05:23:39;41.27;;;7.30;;
37847;SDS011;23688;33.130;-117.188;2023-02-15T05:26:06;41.95;;;6.00;;
37847;SDS011;23688;33.130;-117.188;2023-02-15T05:28:52;41.80;;;7.28;;
37847;SDS011;23688;33.130;-117.188;2023-02-15T05:31:19;42.00;;;7.57;;
37847;SDS011;23688;33.130;-117.188;2023-02-15T05:33:45;41.85;;;7.53;;
37847;SDS011;23688;33.130;-117.188;2023-02-15T05:36:12;37.80;;;6.95;;
37847;SDS011;23688;33.130;-117.188;2023-02-15T05:38:38;28.35;;;7.20;;
37847;SDS011;23688;33.130;-117.188;2023-02-15T05:41:05;41.53;;;8.98;;
37847;SDS011;23688;33.130;-117.188;2023-02-15T05:43:33;38.40;;;6.45;;
37847;SDS011;23688;33.130;-117.188;2023-02-15T05:46:00;40.08;;;7.70;;
37847;SDS011;23688;33.130;-117.188;2023-02-15T05:48:28;51.60;;;8.20;;
37847;SDS011;23688;33.130;-117.188;2023-02-15T05:53:28;35.88;;;7.10;;
37847;SDS011;23688;33.130;-117.188;2023-02-15T05:55:55;43.80;;;7.73;;
37847;SDS011;23688;33.130;-117.188;2023-02-15T05:58:25;40.83;;;7.05;;
37847;SDS011;23688;33.130;-117.188;2023-02-15T06:00:52;45.58;;;7.82;;
37847;SDS011;23688;33.130;-117.188;2023-02-15T06:03:20;40.28;;;9.15;;
37847;SDS011;23688;33.130;-117.188;2023-02-15T06:05:47;31.63;;;7.13;;
37847;SDS011;23688;33.130;-117.188;2023-02-15T06:08:14;40.97;;;9.23;;
37847;SDS011;23688;33.130;-117.188;2023-02-15T06:10:40;50.95;;;10.15;;
37847;SDS011;23688;33.130;-117.188;2023-02-15T06:13:07;36.55;;;8.15;;
37847;SDS011;23688;33.130;-117.188;2023-02-15T06:15:33;39.58;;;7.72;;
37847;SDS011;23688;33.130;-117.188;2023-02-15T06:17:59;46.08;;;8.15;;
37847;SDS011;23688;33.130;-117.188;2023-02-15T06:20:26;45.63;;;8.40;;
37847;SDS011;23688;33.130;-117.188;2023-02-15T06:22:52;50.92;;;8.60;;
37847;SDS011;23688;33.130;-117.188;2023-02-15T06:25:18;48.03;;;7.63;;
37847;SDS011;23688;33.130;-117.188;2023-02-15T06:27:45;50.17;;;9.30;;
37847;SDS011;23688;33.130;-117.188;2023-02-15T06:30:11;45.78;;;9.45;;
37847;SDS011;23688;33.130;-117.188;2023-02-15T06:32:38;33.97;;;7.22;;
37847;SDS011;23688;33.130;-117.188;2023-02-15T06:35:05;41.90;;;7.80;;
37847;SDS011;23688;33.130;-117.188;2023-02-15T06:37:32;31.30;;;6.22;;
37847;SDS011;23688;33.130;-117.188;2023-02-15T06:39:58;40.03;;;8.25;;
37847;SDS011;23688;33.130;-117.188;2023-02-15T06:42:25;40.10;;;8.45;;
37847;SDS011;23688;33.130;-117.188;2023-02-15T06:44:51;31.48;;;6.55;;
37847;SDS011;23688;33.130;-117.188;2023-02-15T06:47:17;44.47;;;7.35;;
37847;SDS011;23688;33.130;-117.188;2023-02-15T06:49:44;41.47;;;6.40;;
37847;SDS011;23688;33.130;-117.188;2023-02-15T06:52:10;47.80;;;6.07;;
37847;SDS011;23688;33.130;-117.188;2023-02-15T06:54:36;53.50;;;7.13;;
37847;SDS011;23688;33.130;-117.188;2023-02-15T06:57:03;47.85;;;7.82;;
37847;SDS011;23688;33.130;-117.188;2023-02-15T06:59:29;46.08;;;6.97;;
37847;SDS011;23688;33.130;-117.188;2023-02-15T07:01:55;36.60;;;6.60;;
37847;SDS011;23688;33.130;-117.188;2023-02-15T07:04:22;47.60;;;6.30;;
37847;SDS011;23688;33.130;-117.188;2023-02-15T07:06:48;40.10;;;6.85;;
37847;SDS011;23688;33.130;-117.188;2023-02-15T07:09:14;41.00;;;6.38;;
37847;SDS011;23688;33.130;-117.188;2023-02-15T07:11:44;42.30;;;6.90;;
37847;SDS011;23688;33.130;-117.188;2023-02-15T07:14:29;43.70;;;6.68;;
37847;SDS011;23688;33.130;-117.188;2023-02-15T07:16:55;50.97;;;6.93;;
37847;SDS011;23688;33.130;-117.188;2023-02-15T07:19:24;37.42;;;7.03;;
37847;SDS011;23688;33.130;-117.188;2023-02-15T07:21:50;31.02;;;5.63;;
37847;SDS011;23688;33.130;-117.188;2023-02-15T07:24:17;36.38;;;6.70;;
37847;SDS011;23688;33.130;-117.188;2023-02-15T07:26:43;31.00;;;5.55;;
37847;SDS011;23688;33.130;-117.188;2023-02-15T07:29:10;36.58;;;6.65;;
37847;SDS011;23688;33.130;-117.188;2023-02-15T07:31:36;35.83;;;5.63;;
37847;SDS011;23688;33.130;-117.188;2023-02-15T07:34:02;36.08;;;5.32;;
37847;SDS011;23688;33.130;-117.188;2023-02-15T07:36:30;22.63;;;4.20;;
37847;SDS011;23688;33.130;-117.188;2023-02-15T07:38:57;21.23;;;4.85;;
37847;SDS011;23688;33.130;-117.188;2023-02-15T07:41:23;28.63;;;5.10;;
37847;SDS011;23688;33.130;-117.188;2023-02-15T07:43:50;21.27;;;4.15;;
37847;SDS011;23688;33.130;-117.188;2023-02-15T07:46:16;27.27;;;4.10;;
37847;SDS011;23688;33.130;-117.188;2023-02-15T07:48:43;30.73;;;5.55;;
37847;SDS011;23688;33.130;-117.188;2023-02-15T07:51:10;21.05;;;4.60;;
37847;SDS011;23688;33.130;-117.188;2023-02-15T07:53:38;21.27;;;4.55;;
37847;SDS011;23688;33.130;-117.188;2023-02-15T07:56:06;15.95;;;5.00;;
37847;SDS011;23688;33.130;-117.188;2023-02-15T07:58:35;20.42;;;4.50;;
37847;SDS011;23688;33.130;-117.188;2023-02-15T08:01:38;20.45;;;4.78;;
37847;SDS011;23688;33.130;-117.188;2023-02-15T08:04:06;34.85;;;4.90;;
37847;SDS011;23688;33.130;-117.188;2023-02-15T08:06:36;21.35;;;3.65;;
37847;SDS011;23688;33.130;-117.188;2023-02-15T08:09:04;26.20;;;3.92;;
37847;SDS011;23688;33.130;-117.188;2023-02-15T08:11:33;21.50;;;4.13;;
37847;SDS011;23688;33.130;-117.188;2023-02-15T08:14:08;29.60;;;5.18;;
37847;SDS011;23688;33.130;-117.188;2023-02-15T08:16:48;21.63;;;4.63;;
37847;SDS011;23688;33.130;-117.188;2023-02-15T08:19:17;28.48;;;4.10;;
37847;SDS011;23688;33.130;-117.188;2023-02-15T08:21:45;24.85;;;5.57;;
37847;SDS011;23688;33.130;-117.188;2023-02-15T08:24:14;22.15;;;4.75;;
37847;SDS011;23688;33.130;-117.188;2023-02-15T08:26:42;23.27;;;5.45;;
37847;SDS011;23688;33.130;-117.188;2023-02-15T08:29:10;32.80;;;5.07;;
37847;SDS011;23688;33.130;-117.188;2023-02-15T08:31:36;20.00;;;4.30;;
37847;SDS011;23688;33.130;-117.188;2023-02-15T08:34:03;26.65;;;5.18;;
37847;SDS011;23688;33.130;-117.188;2023-02-15T08:36:31;24.60;;;5.00;;
37847;SDS011;23688;33.130;-117.188;2023-02-15T08:38:57;22.02;;;4.22;;
37847;SDS011;23688;33.130;-117.188;2023-02-15T08:41:26;22.85;;;5.78;;
37847;SDS011;23688;33.130;-117.188;2023-02-15T08:43:55;26.50;;;5.97;;
37847;SDS011;23688;33.130;-117.188;2023-02-15T08:46:24;28.38;;;4.35;;
37847;SDS011;23688;33.130;-117.188;2023-02-15T08:48:53;24.90;;;4.32;;
37847;SDS011;23688;33.130;-117.188;2023-02-15T08:51:20;24.13;;;4.60;;
37847;SDS011;23688;33.130;-117.188;2023-02-15T08:53:52;25.58;;;4.65;;
37847;SDS011;23688;33.130;-117.188;2023-02-15T08:56:21;19.02;;;3.65;;
37847;SDS011;23688;33.130;-117.188;2023-02-15T08:58:52;17.23;;;4.25;;
37847;SDS011;23688;33.130;-117.188;2023-02-15T09:01:20;26.67;;;5.35;;
37847;SDS011;23688;33.130;-117.188;2023-02-15T09:04:07;22.53;;;5.00;;
37847;SDS011;23688;33.130;-117.188;2023-02-15T09:06:35;28.98;;;4.45;;
37847;SDS011;23688;33.130;-117.188;2023-02-15T09:09:03;22.83;;;4.20;;
37847;SDS011;23688;33.130;-117.188;2023-02-15T09:11:33;23.63;;;4.00;;
37847;SDS011;23688;33.130;-117.188;2023-02-15T09:14:04;16.15;;;4.10;;
37847;SDS011;23688;33.130;-117.188;2023-02-15T09:16:33;19.70;;;3.60;;
37847;SDS011;23688;33.130;-117.188;2023-02-15T09:19:02;21.08;;;3.83;;
37847;SDS011;23688;33.130;-117.188;2023-02-15T09:21:33;17.30;;;3.85;;
37847;SDS011;23688;33.130;-117.188;2023-02-15T09:24:02;15.02;;;3.72;;
37847;SDS011;23688;33.130;-117.188;2023-02-15T09:26:32;23.13;;;5.20;;
37847;SDS011;23688;33.130;-117.188;2023-02-15T09:29:00;28.25;;;4.95;;
37847;SDS011;23688;33.130;-117.188;2023-02-15T09:31:38;16.17;;;3.67;;
37847;SDS011;23688;33.130;-117.188;2023-02-15T09:34:09;28.02;;;3.97;;
37847;SDS011;23688;33.130;-117.188;2023-02-15T09:36:37;27.88;;;5.30;;
37847;SDS011;23688;33.130;-117.188;2023-02-15T09:39:18;21.10;;;3.80;;
37847;SDS011;23688;33.130;-117.188;2023-02-15T09:41:59;28.88;;;5.97;;
37847;SDS011;23688;33.130;-117.188;2023-02-15T09:45:39;21.33;;;5.32;;
37847;SDS011;23688;33.130;-117.188;2023-02-15T09:58:56;18.08;;;3.90;;
37847;SDS011;23688;33.130;-117.188;2023-02-15T10:04:35;12.73;;;3.55;;
37847;SDS011;23688;33.130;-117.188;2023-02-15T10:21:30;18.75;;;3.15;;
37847;SDS011;23688;33.130;-117.188;2023-02-15T10:26:56;16.27;;;2.67;;
37847;SDS011;23688;33.130;-117.188;2023-02-15T10:29:36;23.85;;;3.90;;
37847;SDS011;23688;33.130;-117.188;2023-02-15T10:32:24;11.43;;;2.00;;
37847;SDS011;23688;33.130;-117.188;2023-02-15T10:35:03;8.25;;;2.03;;
37847;SDS011;23688;33.130;-117.188;2023-02-15T10:40:32;13.88;;;2.60;;
37847;SDS011;23688;33.130;-117.188;2023-02-15T10:43:14;11.80;;;1.70;;
37847;SDS011;23688;33.130;-117.188;2023-02-15T10:54:06;9.55;;;2.30;;
37847;SDS011;23688;33.130;-117.188;2023-02-15T11:05:31;9.68;;;1.65;;
37847;SDS011;23688;33.130;-117.188;2023-02-15T11:08:09;7.35;;;2.47;;
37847;SDS011;23688;33.130;-117.188;2023-02-15T11:10:44;11.50;;;2.15;;
37847;SDS011;23688;33.130;-117.188;2023-02-15T11:13:34;10.63;;;1.95;;
37847;SDS011;23688;33.130;-117.188;2023-02-15T11:18:51;9.30;;;1.98;;
37847;SDS011;23688;33.130;-117.188;2023-02-15T11:21:32;8.90;;;1.50;;
37847;SDS011;23688;33.130;-117.188;2023-02-15T11:24:10;13.05;;;1.65;;
37847;SDS011;23688;33.130;-117.188;2023-02-15T11:26:41;6.63;;;2.58;;
37847;SDS011;23688;33.130;-117.188;2023-02-15T11:31:53;6.75;;;1.67;;
37847;SDS011;23688;33.130;-117.188;2023-02-15T11:36:58;9.57;;;1.55;;
37847;SDS011;23688;33.130;-117.188;2023-02-15T11:39:30;11.55;;;1.65;;
37847;SDS011;23688;33.130;-117.188;2023-02-15T11:42:00;8.55;;;2.10;;
37847;SDS011;23688;33.130;-117.188;2023-02-15T11:47:53;14.98;;;1.40;;
37847;SDS011;23688;33.130;-117.188;2023-02-15T11:50:28;3.95;;;1.30;;
37847;SDS011;23688;33.130;-117.188;2023-02-15T11:52:57;10.48;;;1.20;;
37847;SDS011;23688;33.130;-117.188;2023-02-15T11:55:29;7.50;;;1.60;;
37847;SDS011;23688;33.130;-117.188;2023-02-15T11:58:11;3.20;;;0.85;;
37847;SDS011;23688;33.130;-117.188;2023-02-15T12:01:35;3.15;;;0.77;;
37847;SDS011;23688;33.130;-117.188;2023-02-15T12:06:48;4.57;;;1.17;;
37847;SDS011;23688;33.130;-117.188;2023-02-15T12:12:35;14.57;;;1.37;;
37847;SDS011;23688;33.130;-117.188;2023-02-15T12:15:03;3.58;;;0.90;;
37847;SDS011;23688;33.130;-117.188;2023-02-15T12:22:50;6.35;;;1.10;;
37847;SDS011;23688;33.130;-117.188;2023-02-15T12:25:35;3.85;;;1.20;;
37847;SDS011;23688;33.130;-117.188;2023-02-15T12:28:15;2.80;;;1.10;;
37847;SDS011;23688;33.130;-117.188;2023-02-15T12:31:03;6.38;;;1.35;;
37847;SDS011;23688;33.130;-117.188;2023-02-15T12:33:44;6.25;;;1.00;;
37847;SDS011;23688;33.130;-117.188;2023-02-15T12:44:21;4.78;;;1.55;;
37847;SDS011;23688;33.130;-117.188;2023-02-15T12:49:35;5.32;;;1.35;;
37847;SDS011;23688;33.130;-117.188;2023-02-15T12:54:45;3.83;;;1.15;;
37847;SDS011;23688;33.130;-117.188;2023-02-15T12:57:14;7.85;;;0.88;;
37847;SDS011;23688;33.130;-117.188;2023-02-15T12:59:51;5.45;;;1.00;;
37847;SDS011;23688;33.130;-117.188;2023-02-15T13:07:50;17.88;;;2.78;;
37847;SDS011;23688;33.130;-117.188;2023-02-15T13:10:29;14.52;;;1.65;;
37847;SDS011;23688;33.130;-117.188;2023-02-15T13:13:01;11.40;;;1.52;;
37847;SDS011;23688;33.130;-117.188;2023-02-15T13:15:35;4.22;;;1.08;;
37847;SDS011;23688;33.130;-117.188;2023-02-15T13:18:10;11.20;;;1.48;;
37847;SDS011;23688;33.130;-117.188;2023-02-15T13:20:41;6.68;;;1.17;;
37847;SDS011;23688;33.130;-117.188;2023-02-15T13:23:20;6.65;;;1.17;;
37847;SDS011;23688;33.130;-117.188;2023-02-15T13:25:57;6.38;;;1.20;;
37847;SDS011;23688;33.130;-117.188;2023-02-15T13:28:44;4.00;;;1.08;;
37847;SDS011;23688;33.130;-117.188;2023-02-15T13:31:20;2.83;;;1.20;;
37847;SDS011;23688;33.130;-117.188;2023-02-15T13:33:50;7.55;;;1.52;;
37847;SDS011;23688;33.130;-117.188;2023-02-15T13:36:27;1.88;;;0.85;;
37847;SDS011;23688;33.130;-117.188;2023-02-15T13:44:23;9.23;;;1.60;;
37847;SDS011;23688;33.130;-117.188;2023-02-15T13:52:51;4.38;;;1.02;;
37847;SDS011;23688;33.130;-117.188;2023-02-15T14:06:14;1.40;;;0.70;;
37847;SDS011;23688;33.130;-117.188;2023-02-15T14:12:21;5.93;;;0.80;;
37847;SDS011;23688;33.130;-117.188;2023-02-15T14:32:20;6.88;;;1.25;;
37847;SDS011;23688;33.130;-117.188;2023-02-15T14:34:57;4.60;;;0.90;;
37847;SDS011;23688;33.130;-117.188;2023-02-15T14:37:47;10.48;;;1.20;;
37847;SDS011;23688;33.130;-117.188;2023-02-15T14:51:57;4.57;;;0.90;;
37847;SDS011;23688;33.130;-117.188;2023-02-15T14:59:40;3.58;;;1.08;;
37847;SDS011;23688;33.130;-117.188;2023-02-15T15:04:38;2.97;;;0.90;;
37847;SDS011;23688;33.130;-117.188;2023-02-15T15:07:12;1.58;;;0.90;;
37847;SDS011;23688;33.130;-117.188;2023-02-15T15:09:45;6.82;;;1.00;;
37847;SDS011;23688;33.130;-117.188;2023-02-15T15:12:41;6.60;;;1.02;;
37847;SDS011;23688;33.130;-117.188;2023-02-15T15:18:42;4.95;;;0.90;;
37847;SDS011;23688;33.130;-117.188;2023-02-15T15:30:02;2.92;;;0.63;;
37847;SDS011;23688;33.130;-117.188;2023-02-15T15:41:18;1.52;;;0.77;;
37847;SDS011;23688;33.130;-117.188;2023-02-15T15:49:37;3.42;;;0.60;;
37847;SDS011;23688;33.130;-117.188;2023-02-15T15:52:12;0.60;;;0.40;;
37847;SDS011;23688;33.130;-117.188;2023-02-15T15:54:41;5.65;;;1.50;;
37847;SDS011;23688;33.130;-117.188;2023-02-15T15:57:27;3.70;;;1.35;;
37847;SDS011;23688;33.130;-117.188;2023-02-15T15:59:56;3.50;;;0.70;;
37847;SDS011;23688;33.130;-117.188;2023-02-15T16:02:27;3.05;;;0.90;;
37847;SDS011;23688;33.130;-117.188;2023-02-15T16:04:53;1.58;;;0.35;;
37847;SDS011;23688;33.130;-117.188;2023-02-15T16:09:58;2.03;;;0.57;;
37847;SDS011;23688;33.130;-117.188;2023-02-15T16:12:33;5.20;;;0.70;;
37847;SDS011;23688;33.130;-117.188;2023-02-15T16:15:02;1.30;;;0.40;;
37847;SDS011;23688;33.130;-117.188;2023-02-15T16:17:40;5.67;;;0.80;;
37847;SDS011;23688;33.130;-117.188;2023-02-15T16:25:49;4.83;;;1.00;;
37847;SDS011;23688;33.130;-117.188;2023-02-15T16:28:31;3.33;;;0.70;;
37847;SDS011;23688;33.130;-117.188;2023-02-15T16:31:05;2.40;;;0.40;;
37847;SDS011;23688;33.130;-117.188;2023-02-15T16:33:37;7.70;;;0.68;;
37847;SDS011;23688;33.130;-117.188;2023-02-15T16:36:06;5.35;;;1.13;;
37847;SDS011;23688;33.130;-117.188;2023-02-15T16:41:12;7.65;;;1.45;;
37847;SDS011;23688;33.130;-117.188;2023-02-15T16:43:41;7.53;;;0.52;;
37847;SDS011;23688;33.130;-117.188;2023-02-15T16:46:11;2.15;;;0.43;;
37847;SDS011;23688;33.130;-117.188;2023-02-15T16:48:43;3.83;;;0.90;;
37847;SDS011;23688;33.130;-117.188;2023-02-15T16:51:18;6.53;;;1.00;;
37847;SDS011;23688;33.130;-117.188;2023-02-15T16:53:49;6.75;;;1.05;;
37847;SDS011;23688;33.130;-117.188;2023-02-15T16:56:17;3.25;;;1.00;;
37847;SDS011;23688;33.130;-117.188;2023-02-15T16:58:53;3.00;;;0.40;;
37847;SDS011;23688;33.130;-117.188;2023-02-15T17:01:22;7.05;;;0.65;;
37847;SDS011;23688;33.130;-117.188;2023-02-15T17:04:09;1.85;;;0.40;;
37847;SDS011;23688;33.130;-117.188;2023-02-15T17:06:37;1.95;;;0.60;;
37847;SDS011;23688;33.130;-117.188;2023-02-15T17:09:05;1.85;;;0.45;;
37847;SDS011;23688;33.130;-117.188;2023-02-15T17:11:40;2.08;;;0.68;;
37847;SDS011;23688;33.130;-117.188;2023-02-15T17:16:35;6.05;;;0.63;;
37847;SDS011;23688;33.130;-117.188;2023-02-15T17:19:13;4.97;;;0.40;;
37847;SDS011;23688;33.130;-117.188;2023-02-15T17:21:50;4.43;;;0.40;;
37847;SDS011;23688;33.130;-117.188;2023-02-15T17:26:58;2.88;;;0.90;;
37847;SDS011;23688;33.130;-117.188;2023-02-15T17:32:03;0.95;;;0.50;;
37847;SDS011;23688;33.130;-117.188;2023-02-15T17:34:45;1.58;;;0.52;;
37847;SDS011;23688;33.130;-117.188;2023-02-15T17:39:52;5.60;;;0.50;;
37847;SDS011;23688;33.130;-117.188;2023-02-15T17:42:19;2.38;;;0.40;;
37847;SDS011;23688;33.130;-117.188;2023-02-15T17:44:48;4.07;;;0.47;;
37847;SDS011;23688;33.130;-117.188;2023-02-15T17:47:18;0.25;;;0.25;;
37847;SDS011;23688;33.130;-117.188;2023-02-15T17:49:46;2.67;;;0.40;;
37847;SDS011;23688;33.130;-117.188;2023-02-15T17:52:16;3.85;;;0.63;;
37847;SDS011;23688;33.130;-117.188;2023-02-15T17:54:50;1.88;;;0.55;;
37847;SDS011;23688;33.130;-117.188;2023-02-15T17:57:35;1.08;;;0.50;;
37847;SDS011;23688;33.130;-117.188;2023-02-15T18:00:03;1.65;;;0.40;;
37847;SDS011;23688;33.130;-117.188;2023-02-15T18:02:48;0.40;;;0.30;;
37847;SDS011;23688;33.130;-117.188;2023-02-15T18:05:33;2.95;;;0.40;;
37847;SDS011;23688;33.130;-117.188;2023-02-15T18:08:18;5.32;;;0.55;;
37847;SDS011;23688;33.130;-117.188;2023-02-15T18:11:09;2.22;;;0.30;;
37847;SDS011;23688;33.130;-117.188;2023-02-15T18:13:54;1.50;;;0.40;;
37847;SDS011;23688;33.130;-117.188;2023-02-15T18:16:26;0.85;;;0.57;;
37847;SDS011;23688;33.130;-117.188;2023-02-15T18:18:55;1.42;;;0.22;;
37847;SDS011;23688;33.130;-117.188;2023-02-15T18:21:24;2.22;;;0.30;;
37847;SDS011;23688;33.130;-117.188;2023-02-15T18:23:51;1.23;;;0.47;;
37847;SDS011;23688;33.130;-117.188;2023-02-15T18:26:18;13.18;;;0.55;;
37847;SDS011;23688;33.130;-117.188;2023-02-15T18:28:47;4.10;;;0.40;;
37847;SDS011;23688;33.130;-117.188;2023-02-15T18:31:14;5.70;;;0.70;;
37847;SDS011;23688;33.130;-117.188;2023-02-15T18:33:43;4.78;;;0.95;;
37847;SDS011;23688;33.130;-117.188;2023-02-15T18:36:20;2.83;;;0.57;;
37847;SDS011;23688;33.130;-117.188;2023-02-15T18:38:49;3.40;;;0.40;;